Time;durP1;ratioP1;P1;durP2;ratioP2;P2;SDS_P1;SDS_P2;PMS_P1;PMS_P2;Temp;Humidity;BMP_temperature;BMP_pressure;BME280_temperature;BME280_humidity;BME280_pressure;Samples;Min_cycle;Max_cycle;Signal;HPM_P1;HPM_P2
2023/05/13 00:00:13;;;;;;;9.40;8.50;;;14.30;99.90;;;;;;5018409;28;20056;-73
2023/05/13 00:02:39;;;;;;;13.63;9.23;;;14.20;99.90;;;;;;5030752;28;20111;-74
2023/05/13 00:05:05;;;;;;;10.80;9.00;;;14.20;99.90;;;;;;5024727;28;20303;-72
2023/05/13 00:07:31;;;;;;;11.13;8.75;;;14.10;99.90;;;;;;5027656;28;20033;-73
2023/05/13 00:09:57;;;;;;;14.55;9.05;;;14.00;99.90;;;;;;5023305;28;20519;-73
2023/05/13 00:12:22;;;;;;;10.50;9.07;;;14.00;99.90;;;;;;5017988;28;20049;-72
2023/05/13 00:14:48;;;;;;;13.85;9.43;;;13.90;99.90;;;;;;5021000;28;20045;-72
2023/05/13 00:17:14;;;;;;;10.40;8.95;;;13.90;99.90;;;;;;5018494;28;20067;-74
2023/05/13 00:19:42;;;;;;;10.15;9.00;;;13.80;99.90;;;;;;5022206;28;20572;-75
2023/05/13 00:22:08;;;;;;;10.43;9.25;;;13.80;99.90;;;;;;5019859;28;20049;-75
2023/05/13 00:24:40;;;;;;;13.80;9.80;;;13.80;99.90;;;;;;5017859;28;20072;-74
2023/05/13 00:27:05;;;;;;;11.07;9.77;;;13.80;99.90;;;;;;5022878;28;20063;-72
2023/05/13 00:29:31;;;;;;;11.82;9.90;;;13.80;99.90;;;;;;5025910;28;20487;-74
2023/05/13 00:31:57;;;;;;;14.65;9.93;;;13.70;99.90;;;;;;5024854;28;20080;-74
2023/05/13 00:34:23;;;;;;;12.38;10.02;;;13.70;99.90;;;;;;5030946;28;20041;-74
2023/05/13 00:36:48;;;;;;;12.50;10.00;;;13.70;99.90;;;;;;5022196;28;20045;-73
2023/05/13 00:39:17;;;;;;;13.27;9.63;;;13.70;99.90;;;;;;5033561;28;20045;-72
2023/05/13 00:41:43;;;;;;;13.35;10.27;;;13.60;99.90;;;;;;5024757;28;20045;-74
2023/05/13 00:44:08;;;;;;;12.48;10.20;;;13.60;99.90;;;;;;5025098;28;20041;-73
2023/05/13 00:46:35;;;;;;;12.20;10.05;;;13.60;99.90;;;;;;5028569;28;20048;-75
2023/05/13 00:49:03;;;;;;;12.43;9.82;;;13.60;99.90;;;;;;5025704;28;20596;-75
2023/05/13 00:51:30;;;;;;;13.40;9.85;;;13.60;99.90;;;;;;5026884;28;20076;-75
2023/05/13 00:53:58;;;;;;;11.35;10.25;;;13.50;99.90;;;;;;5030136;28;20472;-75
2023/05/13 00:56:25;;;;;;;10.90;9.73;;;13.50;99.90;;;;;;5025053;28;20135;-73
2023/05/13 00:58:50;;;;;;;14.30;10.65;;;13.50;99.90;;;;;;5025862;28;20049;-72
2023/05/13 01:01:25;;;;;;;12.88;10.02;;;13.50;99.90;;;;;;5027713;28;20080;-73
2023/05/13 01:04:16;;;;;;;12.55;10.73;;;13.50;99.90;;;;;;5017772;28;20451;-73
2023/05/13 01:07:08;;;;;;;12.40;10.50;;;13.40;99.90;;;;;;5022406;28;20670;-74
2023/05/13 01:10:05;;;;;;;12.55;10.55;;;13.40;99.90;;;;;;5019369;28;20072;-72
2023/05/13 01:12:35;;;;;;;12.65;11.30;;;13.40;99.90;;;;;;5028076;28;20048;-74
2023/05/13 01:15:09;;;;;;;13.07;10.90;;;13.30;99.90;;;;;;5027374;28;20044;-73
2023/05/13 01:17:43;;;;;;;11.60;10.50;;;13.30;99.90;;;;;;5019698;28;20061;-72
2023/05/13 01:20:10;;;;;;;12.70;10.90;;;13.20;99.90;;;;;;5027604;28;20048;-74
2023/05/13 01:22:35;;;;;;;12.32;11.00;;;13.20;99.90;;;;;;5026255;28;20683;-72
2023/05/13 01:25:01;;;;;;;12.10;10.80;;;13.20;99.90;;;;;;5031031;28;20045;-73
2023/05/13 01:27:27;;;;;;;12.50;11.00;;;13.20;99.90;;;;;;5030711;28;20420;-72
2023/05/13 01:29:54;;;;;;;13.43;11.52;;;13.20;99.90;;;;;;5036305;28;20055;-73
2023/05/13 01:32:21;;;;;;;12.32;11.07;;;13.20;99.90;;;;;;5034056;28;20102;-73
2023/05/13 01:34:48;;;;;;;;;;;13.10;99.90;;;;;;5032881;28;20040;-72
2023/05/13 01:37:13;;;;;;;11.40;10.30;;;13.00;99.90;;;;;;5034082;28;20447;-74
2023/05/13 01:39:40;;;;;;;17.92;10.50;;;13.00;99.90;;;;;;5036550;28;20053;-74
2023/05/13 01:42:06;;;;;;;15.23;11.70;;;13.00;99.90;;;;;;5025742;28;20060;-75
2023/05/13 01:44:32;;;;;;;16.75;11.38;;;12.90;99.90;;;;;;5025348;28;20304;-72
2023/05/13 01:46:57;;;;;;;12.45;11.25;;;12.90;99.90;;;;;;5035093;28;20040;-72
2023/05/13 01:49:23;;;;;;;12.43;11.18;;;12.90;99.90;;;;;;5034389;28;20558;-75
2023/05/13 01:51:48;;;;;;;15.63;11.40;;;12.80;99.90;;;;;;5029111;28;20123;-73
2023/05/13 01:54:14;;;;;;;13.07;11.63;;;12.80;99.90;;;;;;5022580;28;20041;-75
2023/05/13 01:56:40;;;;;;;13.65;11.48;;;12.80;99.90;;;;;;5023050;28;20132;-75
2023/05/13 01:59:06;;;;;;;12.52;11.23;;;12.80;99.90;;;;;;5022410;28;20530;-74
2023/05/13 02:01:32;;;;;;;13.52;11.65;;;12.80;99.90;;;;;;5026584;28;20061;-73
2023/05/13 02:04:00;;;;;;;12.45;11.07;;;12.80;99.90;;;;;;5032362;28;20055;-71
2023/05/13 02:06:27;;;;;;;13.65;12.00;;;12.80;99.90;;;;;;5033482;28;20056;-75
2023/05/13 02:08:53;;;;;;;12.75;11.45;;;12.70;99.90;;;;;;5028631;28;20068;-75
2023/05/13 02:11:19;;;;;;;13.15;11.73;;;12.70;99.90;;;;;;5026210;28;20048;-75
2023/05/13 02:13:44;;;;;;;13.27;11.90;;;12.70;99.90;;;;;;5027231;28;20509;-72
2023/05/13 02:16:15;;;;;;;13.10;11.90;;;12.70;99.90;;;;;;5020086;28;20535;-74
2023/05/13 02:18:41;;;;;;;12.57;11.30;;;12.60;99.90;;;;;;5025859;28;20123;-72
2023/05/13 02:21:06;;;;;;;13.25;11.95;;;12.60;99.90;;;;;;5024812;28;20048;-72
2023/05/13 02:23:32;;;;;;;12.50;11.13;;;12.60;99.90;;;;;;5022253;28;20076;-74
2023/05/13 02:25:58;;;;;;;14.38;11.70;;;12.60;99.90;;;;;;5019124;28;22216;-72
2023/05/13 02:28:23;;;;;;;12.90;11.60;;;12.50;99.90;;;;;;5034640;28;20074;-71
2023/05/13 02:30:49;;;;;;;13.10;11.65;;;12.50;99.90;;;;;;5032270;28;20037;-73
2023/05/13 02:33:14;;;;;;;14.00;11.18;;;12.50;99.90;;;;;;5031279;28;20053;-75
2023/05/13 02:35:40;;;;;;;15.48;11.68;;;12.50;99.90;;;;;;5027314;28;20048;-74
2023/05/13 02:38:08;;;;;;;12.60;11.32;;;12.50;99.90;;;;;;5032988;28;20044;-73
2023/05/13 02:40:34;;;;;;;13.07;11.48;;;12.40;99.90;;;;;;5023474;28;20057;-75
2023/05/13 02:43:00;;;;;;;13.38;11.82;;;12.40;99.90;;;;;;5029258;28;20042;-71
2023/05/13 02:45:26;;;;;;;14.15;11.27;;;12.40;99.90;;;;;;5030108;28;20045;-72
2023/05/13 02:47:51;;;;;;;14.02;11.43;;;12.40;99.90;;;;;;5029665;28;20130;-72
2023/05/13 02:50:17;;;;;;;13.00;11.63;;;12.40;99.90;;;;;;5027086;28;20045;-74
2023/05/13 02:52:43;;;;;;;12.57;11.38;;;12.30;99.90;;;;;;5028125;28;20055;-73
2023/05/13 02:55:09;;;;;;;12.90;11.60;;;12.30;99.90;;;;;;5033513;28;20053;-72
2023/05/13 02:57:36;;;;;;;12.93;11.35;;;12.30;99.90;;;;;;5028176;28;20047;-73
2023/05/13 03:00:03;;;;;;;13.73;11.80;;;12.20;99.90;;;;;;5030915;28;20129;-72
2023/05/13 03:02:30;;;;;;;12.85;11.48;;;12.20;99.90;;;;;;5027173;28;20172;-73
2023/05/13 03:04:56;;;;;;;12.83;11.60;;;12.20;99.90;;;;;;5031551;28;20748;-74
2023/05/13 03:07:23;;;;;;;13.90;12.48;;;12.20;99.90;;;;;;5024577;28;20052;-75
2023/05/13 03:09:49;;;;;;;13.32;11.93;;;12.20;99.90;;;;;;5018697;28;20057;-74
2023/05/13 03:12:14;;;;;;;15.70;12.18;;;12.10;99.90;;;;;;5026268;28;20099;-73
2023/05/13 03:14:41;;;;;;;14.40;11.93;;;12.10;99.90;;;;;;5023630;28;20147;-74
2023/05/13 03:17:07;;;;;;;14.05;12.55;;;12.10;99.90;;;;;;5027089;28;20056;-75
2023/05/13 03:19:34;;;;;;;15.27;12.75;;;12.00;99.90;;;;;;5029400;28;20033;-72
2023/05/13 03:22:00;;;;;;;15.15;12.65;;;12.00;99.90;;;;;;5026251;28;20045;-74
2023/05/13 03:24:26;;;;;;;14.85;13.32;;;12.00;99.90;;;;;;5031057;28;20094;-71
2023/05/13 03:26:52;;;;;;;14.43;12.75;;;11.90;99.90;;;;;;5030283;28;20045;-74
2023/05/13 03:29:17;;;;;;;14.00;12.57;;;11.90;99.90;;;;;;5023724;28;20053;-73
2023/05/13 03:31:43;;;;;;;14.73;12.38;;;11.90;99.90;;;;;;5026217;28;20116;-72
2023/05/13 03:34:09;;;;;;;16.30;13.00;;;11.90;99.90;;;;;;5027607;28;20120;-72
2023/05/13 03:36:34;;;;;;;13.95;12.55;;;11.90;99.90;;;;;;5026515;28;20116;-76
2023/05/13 03:39:00;;;;;;;14.57;12.70;;;11.80;99.90;;;;;;5027013;28;20037;-73
2023/05/13 03:41:27;;;;;;;14.57;13.00;;;11.80;99.90;;;;;;5022064;28;20053;-73
2023/05/13 03:43:53;;;;;;;13.57;12.37;;;11.80;99.90;;;;;;5030999;28;20048;-74
2023/05/13 03:46:20;;;;;;;17.08;13.57;;;11.80;99.90;;;;;;5022567;28;20036;-73
2023/05/13 03:48:45;;;;;;;17.40;13.43;;;11.80;99.90;;;;;;5048372;28;20718;-74
2023/05/13 03:51:11;;;;;;;14.15;12.82;;;11.70;99.90;;;;;;5031676;28;20040;-73
2023/05/13 03:53:37;;;;;;;15.23;13.73;;;11.80;99.90;;;;;;5029616;28;20049;-72
2023/05/13 03:56:05;;;;;;;14.35;12.88;;;11.80;99.90;;;;;;5021099;28;20456;-74
2023/05/13 03:58:31;;;;;;;15.38;13.88;;;11.80;99.90;;;;;;5024690;28;20546;-74
2023/05/13 04:00:56;;;;;;;14.90;13.43;;;11.80;99.90;;;;;;5024525;28;20045;-74
2023/05/13 04:03:22;;;;;;;15.57;14.02;;;11.80;99.90;;;;;;5028506;28;20106;-72
2023/05/13 04:05:48;;;;;;;15.23;13.73;;;11.70;99.90;;;;;;5021534;28;20100;-74
2023/05/13 04:08:14;;;;;;;15.02;13.48;;;11.70;99.90;;;;;;5029429;28;20122;-73
2023/05/13 04:10:40;;;;;;;15.90;14.48;;;11.70;99.90;;;;;;5023950;28;20053;-73
2023/05/13 04:13:06;;;;;;;15.82;14.27;;;11.70;99.90;;;;;;5028014;28;20041;-73
2023/05/13 04:15:32;;;;;;;15.23;13.65;;;11.70;99.90;;;;;;5020205;28;20041;-74
2023/05/13 04:17:58;;;;;;;16.13;14.45;;;11.70;99.90;;;;;;5028094;28;20053;-74
2023/05/13 04:20:24;;;;;;;15.73;14.23;;;11.70;99.90;;;;;;5045250;28;20109;-72
2023/05/13 04:22:50;;;;;;;15.60;13.70;;;11.70;99.90;;;;;;5025724;28;20944;-73
2023/05/13 04:25:16;;;;;;;16.07;14.20;;;11.70;99.90;;;;;;5017713;28;20447;-74
2023/05/13 04:27:42;;;;;;;15.93;14.38;;;11.70;99.90;;;;;;5028052;28;20052;-73
2023/05/13 04:30:08;;;;;;;15.30;13.52;;;11.70;99.90;;;;;;5028806;28;20068;-73
2023/05/13 04:32:38;;;;;;;17.58;15.07;;;11.80;99.90;;;;;;5028568;28;20063;-71
2023/05/13 04:35:04;;;;;;;19.65;16.52;;;11.80;99.90;;;;;;5024671;28;20452;-73
2023/05/13 04:37:30;;;;;;;16.58;14.85;;;11.80;99.90;;;;;;5027951;28;20076;-72
2023/05/13 04:39:55;;;;;;;15.98;14.35;;;11.80;99.90;;;;;;5032941;28;20160;-74
2023/05/13 04:42:21;;;;;;;15.88;14.20;;;11.80;99.90;;;;;;5026660;28;20245;-74
2023/05/13 04:44:47;;;;;;;15.65;14.25;;;11.70;99.90;;;;;;5028513;28;20056;-74
2023/05/13 04:47:12;;;;;;;16.98;15.25;;;11.80;99.90;;;;;;5026513;28;20049;-71
2023/05/13 04:49:38;;;;;;;16.90;15.30;;;11.80;99.90;;;;;;5032612;28;20069;-75
2023/05/13 04:52:04;;;;;;;17.15;15.50;;;11.80;99.90;;;;;;5028339;28;20051;-75
2023/05/13 04:54:30;;;;;;;17.83;16.00;;;11.80;99.90;;;;;;5031684;28;20107;-74
2023/05/13 04:56:56;;;;;;;17.67;15.88;;;11.80;99.90;;;;;;5033105;28;20048;-73
2023/05/13 04:59:21;;;;;;;18.23;15.20;;;11.80;99.90;;;;;;5035553;28;20106;-75
2023/05/13 05:01:48;;;;;;;17.80;16.00;;;11.90;99.90;;;;;;5027510;28;20149;-73
2023/05/13 05:04:13;;;;;;;17.48;15.75;;;11.90;99.90;;;;;;5028627;28;20054;-73
2023/05/13 05:06:39;;;;;;;17.65;15.90;;;11.90;99.90;;;;;;5033467;28;20047;-75
2023/05/13 05:09:05;;;;;;;17.23;15.60;;;11.90;99.90;;;;;;5037376;28;20059;-74
2023/05/13 05:11:32;;;;;;;18.33;16.42;;;11.90;99.90;;;;;;5028804;28;20040;-72
2023/05/13 05:13:57;;;;;;;17.70;16.20;;;11.90;99.90;;;;;;5023560;28;20045;-72
2023/05/13 05:16:23;;;;;;;18.10;15.82;;;12.00;99.90;;;;;;5029721;28;20385;-72
2023/05/13 05:18:49;;;;;;;18.90;16.52;;;12.00;99.90;;;;;;5033184;28;20460;-74
2023/05/13 05:21:17;;;;;;;17.70;15.48;;;12.00;99.90;;;;;;5030695;28;20044;-72
2023/05/13 05:23:42;;;;;;;17.75;15.88;;;12.10;99.90;;;;;;5025047;28;20049;-72
2023/05/13 05:26:08;;;;;;;18.60;16.67;;;12.10;99.90;;;;;;5028100;28;20060;-73
2023/05/13 05:28:33;;;;;;;18.00;16.13;;;12.20;99.90;;;;;;5032832;28;20063;-72
2023/05/13 05:31:00;;;;;;;19.27;17.35;;;12.20;99.90;;;;;;5025844;28;20045;-72
2023/05/13 05:33:26;;;;;;;18.02;16.00;;;12.30;99.90;;;;;;5028259;28;20045;-73
2023/05/13 05:35:52;;;;;;;18.30;16.65;;;12.30;99.90;;;;;;5032657;28;20048;-74
2023/05/13 05:38:18;;;;;;;17.65;15.80;;;12.40;99.90;;;;;;5035127;28;20071;-75
2023/05/13 05:40:45;;;;;;;19.92;17.00;;;12.40;99.90;;;;;;5036396;28;20127;-71
2023/05/13 05:43:11;;;;;;;19.13;17.40;;;12.50;99.90;;;;;;5031434;28;20051;-71
2023/05/13 05:45:38;;;;;;;19.30;17.60;;;12.50;99.90;;;;;;5026138;28;20488;-72
2023/05/13 05:48:04;;;;;;;20.25;18.42;;;12.50;99.90;;;;;;5028462;28;20036;-73
2023/05/13 05:50:30;;;;;;;20.08;17.95;;;12.60;99.90;;;;;;5029903;28;20073;-74
2023/05/13 05:52:56;;;;;;;20.50;18.50;;;12.60;99.90;;;;;;5024794;28;20450;-74
2023/05/13 05:55:22;;;;;;;21.48;19.15;;;12.70;99.90;;;;;;5018377;28;20480;-72
2023/05/13 05:57:48;;;;;;;21.42;19.00;;;12.70;99.90;;;;;;5022181;28;20086;-72
2023/05/13 06:00:14;;;;;;;22.23;20.02;;;12.80;99.90;;;;;;5025988;28;20072;-71
2023/05/13 06:02:41;;;;;;;21.75;19.48;;;12.90;99.90;;;;;;5033686;28;20049;-72
2023/05/13 06:05:07;;;;;;;21.35;19.30;;;12.90;99.90;;;;;;5022075;28;20037;-73
2023/05/13 06:07:33;;;;;;;22.60;20.48;;;12.90;99.90;;;;;;5030486;28;20136;-73
2023/05/13 06:09:58;;;;;;;22.85;20.63;;;13.00;99.90;;;;;;5019840;28;20500;-71
2023/05/13 06:12:24;;;;;;;23.42;21.23;;;13.10;99.90;;;;;;5030004;28;20396;-70
2023/05/13 06:14:50;;;;;;;22.90;20.55;;;13.10;99.90;;;;;;5022239;28;20045;-73
2023/05/13 06:17:16;;;;;;;24.33;21.80;;;13.10;99.90;;;;;;5025215;28;20055;-73
2023/05/13 06:19:41;;;;;;;23.95;21.65;;;13.20;99.90;;;;;;5024493;28;20049;-75
2023/05/13 06:22:10;;;;;;;23.35;20.95;;;13.20;99.90;;;;;;5022531;28;20444;-71
2023/05/13 06:24:37;;;;;;;21.67;19.48;;;13.30;99.90;;;;;;5026217;28;20049;-72
2023/05/13 06:27:04;;;;;;;21.95;19.83;;;13.30;99.90;;;;;;5022363;28;20535;-72
2023/05/13 06:29:30;;;;;;;23.40;21.02;;;13.40;99.90;;;;;;5029608;28;20503;-72
2023/05/13 06:31:56;;;;;;;26.75;21.15;;;13.50;99.90;;;;;;5026662;28;20045;-72
2023/05/13 06:34:22;;;;;;;22.85;20.58;;;13.50;99.90;;;;;;5032945;28;20049;-73
2023/05/13 06:36:47;;;;;;;23.08;20.83;;;13.60;99.90;;;;;;5030835;28;22233;-74
2023/05/13 06:39:13;;;;;;;23.08;20.88;;;13.60;99.90;;;;;;5014845;28;20041;-73
2023/05/13 06:41:40;;;;;;;22.30;19.92;;;13.70;99.90;;;;;;5027896;28;21305;-71
2023/05/13 06:44:06;;;;;;;21.95;19.75;;;13.70;99.90;;;;;;5021406;28;20051;-73
2023/05/13 06:46:32;;;;;;;21.88;19.67;;;13.80;99.90;;;;;;5035498;28;20131;-73
2023/05/13 06:48:58;;;;;;;21.98;19.85;;;13.90;99.90;;;;;;5023423;28;20060;-72
2023/05/13 06:51:26;;;;;;;23.48;19.70;;;13.90;99.90;;;;;;5029990;28;20041;-73
2023/05/13 06:53:52;;;;;;;21.80;19.52;;;14.00;99.90;;;;;;5033501;28;20041;-72
2023/05/13 06:56:20;;;;;;;21.52;19.35;;;14.10;99.90;;;;;;5030194;28;20482;-71
2023/05/13 06:58:46;;;;;;;21.52;19.23;;;14.20;99.90;;;;;;5028389;28;20041;-74
2023/05/13 07:01:11;;;;;;;20.98;19.08;;;14.20;99.90;;;;;;5027565;28;20480;-73
2023/05/13 07:03:37;;;;;;;21.08;18.77;;;14.30;99.90;;;;;;5032128;28;20480;-74
2023/05/13 07:06:03;;;;;;;21.17;19.00;;;14.40;99.90;;;;;;5031372;28;20131;-72
2023/05/13 07:08:29;;;;;;;20.60;18.70;;;14.40;99.90;;;;;;5031953;28;20037;-74
2023/05/13 07:10:55;;;;;;;19.55;17.58;;;14.50;99.90;;;;;;5029613;28;20048;-73
2023/05/13 07:13:21;;;;;;;20.10;18.02;;;14.60;99.90;;;;;;5021385;28;20045;-70
2023/05/13 07:15:48;;;;;;;19.40;17.50;;;14.70;99.90;;;;;;5024425;28;20067;-73
2023/05/13 07:18:13;;;;;;;19.67;17.75;;;14.80;99.90;;;;;;5025872;28;20048;-72
2023/05/13 07:20:39;;;;;;;22.33;17.67;;;14.90;99.90;;;;;;5028338;28;20603;-73
2023/05/13 07:23:05;;;;;;;20.25;17.50;;;15.00;99.90;;;;;;5028239;28;20040;-74
2023/05/13 07:25:31;;;;;;;19.35;17.20;;;15.00;99.90;;;;;;5031210;28;20449;-72
2023/05/13 07:27:57;;;;;;;18.98;16.98;;;15.10;99.90;;;;;;5030070;28;20045;-72
2023/05/13 07:30:23;;;;;;;17.70;15.70;;;15.20;99.90;;;;;;5031558;28;20044;-72
2023/05/13 07:32:48;;;;;;;17.75;15.77;;;15.30;99.90;;;;;;5031212;28;20053;-74
2023/05/13 07:35:15;;;;;;;18.02;16.15;;;15.40;99.90;;;;;;5029083;28;20052;-71
2023/05/13 07:37:41;;;;;;;18.35;16.55;;;15.50;99.90;;;;;;5023691;28;20065;-71
2023/05/13 07:40:07;;;;;;;18.23;15.48;;;15.60;99.90;;;;;;5025181;28;20400;-74
2023/05/13 07:42:33;;;;;;;16.35;14.57;;;15.60;99.90;;;;;;5024540;28;20131;-73
2023/05/13 07:44:59;;;;;;;16.40;14.70;;;15.80;99.90;;;;;;5025217;28;20053;-74
2023/05/13 07:47:27;;;;;;;15.98;14.05;;;15.90;99.90;;;;;;5013435;28;20050;-72
2023/05/13 07:49:54;;;;;;;16.38;14.13;;;16.00;99.90;;;;;;5025751;28;20092;-71
2023/05/13 07:52:20;;;;;;;15.70;14.10;;;16.10;99.90;;;;;;5023210;28;20557;-73
2023/05/13 07:54:45;;;;;;;17.80;13.98;;;16.10;99.90;;;;;;5033378;28;20048;-71
2023/05/13 07:57:11;;;;;;;14.00;12.55;;;16.20;99.90;;;;;;5024799;28;20041;-75
2023/05/13 07:59:37;;;;;;;16.17;12.80;;;16.30;99.90;;;;;;5017402;28;20045;-75
2023/05/13 08:02:02;;;;;;;14.73;13.18;;;16.40;99.90;;;;;;5020504;28;20053;-74
2023/05/13 08:04:28;;;;;;;14.32;12.85;;;16.40;99.90;;;;;;5022851;28;20045;-75
2023/05/13 08:06:54;;;;;;;14.05;11.73;;;16.50;99.90;;;;;;5025875;28;20507;-75
2023/05/13 08:09:19;;;;;;;13.90;12.50;;;16.60;99.90;;;;;;5026060;28;20452;-76
2023/05/13 08:11:45;;;;;;;14.32;12.68;;;16.60;99.90;;;;;;5017546;28;20049;-75
2023/05/13 08:14:10;;;;;;;15.52;13.55;;;16.70;99.90;;;;;;5022229;28;20053;-76
2023/05/13 08:16:36;;;;;;;13.25;11.95;;;16.80;99.90;;;;;;5015898;28;20075;-75
2023/05/13 08:19:02;;;;;;;14.35;12.50;;;16.90;99.90;;;;;;5021316;28;21979;-71
2023/05/13 08:21:28;;;;;;;14.02;11.88;;;16.90;99.90;;;;;;5026464;28;20107;-72
2023/05/13 08:23:54;;;;;;;12.57;11.27;;;17.00;99.90;;;;;;5024982;28;20049;-72
2023/05/13 08:26:20;;;;;;;14.52;13.02;;;17.10;99.90;;;;;;5021490;28;20456;-73
2023/05/13 08:28:45;;;;;;;14.75;13.10;;;17.10;99.90;;;;;;5016355;28;20408;-75
2023/05/13 08:31:12;;;;;;;15.25;13.52;;;17.10;99.90;;;;;;5020478;28;20049;-75
2023/05/13 08:33:38;;;;;;;14.15;12.63;;;17.20;99.90;;;;;;5016204;28;20171;-74
2023/05/13 08:36:05;;;;;;;14.60;12.57;;;17.30;99.90;;;;;;5023517;28;20053;-73
2023/05/13 08:38:32;;;;;;;15.20;12.25;;;17.40;99.90;;;;;;5019696;28;20460;-69
2023/05/13 08:40:58;;;;;;;15.38;12.05;;;17.50;99.90;;;;;;5028263;28;20496;-72
2023/05/13 08:43:27;;;;;;;15.37;13.87;;;17.50;99.90;;;;;;5029859;28;20071;-76
2023/05/13 08:45:55;;;;;;;16.20;13.90;;;17.60;99.90;;;;;;5025738;28;20112;-73
2023/05/13 08:48:22;;;;;;;15.38;12.43;;;17.70;99.90;;;;;;5026910;28;21497;-76
2023/05/13 08:50:48;;;;;;;16.40;14.60;;;17.70;99.90;;;;;;5015813;28;20048;-74
2023/05/13 08:53:16;;;;;;;15.98;14.38;;;17.80;99.90;;;;;;5020429;28;20144;-76
2023/05/13 08:55:41;;;;;;;15.20;13.43;;;17.80;99.90;;;;;;5020396;28;20060;-74
2023/05/13 08:58:07;;;;;;;16.67;13.10;;;17.90;99.90;;;;;;5020910;28;20049;-74
2023/05/13 09:00:36;;;;;;;14.38;12.98;;;17.90;99.90;;;;;;5020855;28;20188;-74
2023/05/13 09:03:02;;;;;;;15.18;13.60;;;18.00;99.90;;;;;;5015583;28;20045;-76
2023/05/13 09:05:28;;;;;;;15.60;13.38;;;18.00;99.90;;;;;;5016249;28;20055;-74
2023/05/13 09:07:54;;;;;;;14.15;12.30;;;18.10;99.90;;;;;;5015482;28;20103;-76
2023/05/13 09:10:20;;;;;;;14.63;13.05;;;18.10;99.90;;;;;;5023161;28;20049;-73
2023/05/13 09:12:46;;;;;;;13.68;12.32;;;18.10;99.90;;;;;;5025578;28;20063;-72
2023/05/13 09:15:17;;;;;;;14.90;12.80;;;18.20;99.90;;;;;;5029571;28;20045;-69
2023/05/13 09:17:46;;;;;;;14.00;12.38;;;18.20;99.90;;;;;;5023512;28;20049;-70
2023/05/13 09:20:14;;;;;;;14.68;11.52;;;18.30;99.90;;;;;;5020548;28;20099;-70
2023/05/13 09:22:47;;;;;;;12.98;11.68;;;18.40;99.90;;;;;;5014780;28;20072;-70
2023/05/13 09:25:14;;;;;;;14.23;12.82;;;18.50;99.90;;;;;;5018081;28;20056;-70
2023/05/13 09:27:41;;;;;;;;;;;18.50;99.90;;;;;;5031299;28;20672;-70
2023/05/13 09:30:07;;;;;;;14.27;10.63;;;18.60;99.90;;;;;;5015065;28;19921;-70
2023/05/13 09:32:33;;;;;;;14.68;10.90;;;18.70;99.90;;;;;;5023454;28;20041;-73
2023/05/13 09:35:17;;;;;;;15.40;11.23;;;18.80;99.90;;;;;;5023332;28;20102;-74
2023/05/13 09:37:47;;;;;;;12.18;10.90;;;18.90;99.90;;;;;;5027671;28;20056;-75
2023/05/13 09:40:15;;;;;;;12.70;10.95;;;18.90;99.90;;;;;;5025368;28;20053;-71
2023/05/13 09:42:45;;;;;;;13.52;9.95;;;19.00;99.90;;;;;;5028155;28;20894;-71
2023/05/13 09:45:12;;;;;;;9.88;8.88;;;19.20;99.90;;;;;;5022977;28;20049;-72
2023/05/13 09:47:39;;;;;;;11.52;9.20;;;19.20;99.90;;;;;;5028187;28;21551;-71
2023/05/13 09:50:06;;;;;;;10.82;8.15;;;19.30;99.90;;;;;;5023722;28;20052;-72
2023/05/13 09:52:33;;;;;;;13.20;7.28;;;19.40;99.90;;;;;;5021771;28;20053;-72
2023/05/13 09:55:00;;;;;;;10.00;6.90;;;19.50;99.60;;;;;;5015576;28;20046;-74
2023/05/13 09:57:27;;;;;;;16.65;7.78;;;19.50;98.80;;;;;;5025363;28;20055;-71
2023/05/13 09:59:59;;;;;;;9.10;7.05;;;19.60;97.90;;;;;;5027084;28;20512;-72
2023/05/13 10:02:26;;;;;;;12.77;6.70;;;19.70;97.70;;;;;;5030735;28;20052;-70
2023/05/13 10:04:55;;;;;;;12.00;6.93;;;19.80;95.90;;;;;;5025127;28;20087;-71
2023/05/13 10:07:24;;;;;;;10.48;6.00;;;19.80;95.10;;;;;;5018150;28;20288;-71
2023/05/13 10:10:00;;;;;;;11.32;6.50;;;19.80;94.60;;;;;;5026618;28;20042;-70
2023/05/13 10:12:27;;;;;;;12.38;6.20;;;19.90;94.90;;;;;;5023995;28;20036;-72
2023/05/13 10:14:53;;;;;;;7.95;6.47;;;20.10;94.80;;;;;;5029696;28;20079;-71
2023/05/13 10:17:24;;;;;;;10.05;6.82;;;20.10;94.50;;;;;;5026972;28;20976;-72
2023/05/13 10:19:53;;;;;;;11.40;6.68;;;20.20;94.30;;;;;;5019903;28;20053;-71
2023/05/13 10:22:30;;;;;;;10.85;6.45;;;20.30;94.10;;;;;;5029671;28;20079;-74
2023/05/13 10:25:01;;;;;;;8.32;6.38;;;20.40;92.90;;;;;;5026461;28;20039;-75
2023/05/13 10:27:32;;;;;;;7.75;6.15;;;20.40;92.70;;;;;;5028750;28;20488;-76
2023/05/13 10:29:58;;;;;;;8.77;5.45;;;20.50;92.80;;;;;;5032949;28;20064;-74
2023/05/13 10:32:29;;;;;;;12.18;5.80;;;20.50;93.10;;;;;;5030418;28;20079;-75
2023/05/13 10:35:20;;;;;;;12.27;5.50;;;20.60;91.40;;;;;;5030069;28;20045;-73
2023/05/13 10:38:20;;;;;;;8.43;4.85;;;20.70;90.40;;;;;;5023944;28;20455;-68
2023/05/13 10:41:00;;;;;;;10.63;5.22;;;20.80;89.60;;;;;;5020997;28;20096;-72
2023/05/13 10:43:28;;;;;;;5.75;5.15;;;20.80;86.30;;;;;;5022304;28;20044;-74
2023/05/13 10:46:19;;;;;;;7.32;4.72;;;20.80;86.30;;;;;;5030863;28;20041;-74
2023/05/13 10:48:50;;;;;;;10.23;5.50;;;20.90;85.50;;;;;;5034435;28;20302;-74
2023/05/13 10:51:17;;;;;;;11.57;5.25;;;21.00;83.90;;;;;;5020770;28;20040;-74
2023/05/13 10:53:47;;;;;;;;;;;21.00;83.40;;;;;;5031438;28;20499;-72
2023/05/13 10:56:13;;;;;;;10.27;4.70;;;21.00;85.10;;;;;;5022031;28;19931;-75
2023/05/13 10:58:38;;;;;;;9.40;4.18;;;21.10;84.80;;;;;;5025958;28;20607;-74
2023/05/13 11:01:24;;;;;;;10.02;4.95;;;21.20;83.60;;;;;;5024857;28;20052;-74
2023/05/13 11:03:54;;;;;;;6.82;4.13;;;21.30;84.20;;;;;;5030253;28;20092;-72
2023/05/13 11:06:29;;;;;;;7.60;4.18;;;21.40;82.30;;;;;;5016509;28;20046;-74
2023/05/13 11:08:54;;;;;;;6.10;4.50;;;21.50;80.70;;;;;;5021249;28;20076;-75
2023/05/13 11:11:21;;;;;;;7.60;4.43;;;21.60;79.20;;;;;;5028770;28;20128;-70
2023/05/13 11:14:06;;;;;;;6.87;4.13;;;21.60;76.40;;;;;;5022193;28;20057;-72
2023/05/13 11:16:32;;;;;;;9.75;4.45;;;21.70;74.70;;;;;;5022358;28;20354;-73
2023/05/13 11:19:00;;;;;;;10.45;4.60;;;21.70;73.60;;;;;;5032730;28;20075;-73
2023/05/13 11:21:31;;;;;;;8.70;5.30;;;21.70;74.00;;;;;;5032760;28;20045;-77
2023/05/13 11:24:02;;;;;;;11.60;5.15;;;21.80;74.10;;;;;;5030199;28;20101;-71
2023/05/13 11:26:42;;;;;;;6.43;4.35;;;21.80;73.40;;;;;;5021896;28;20053;-72
2023/05/13 11:29:07;;;;;;;6.85;4.20;;;21.80;72.20;;;;;;5028542;28;20060;-72
2023/05/13 11:31:43;;;;;;;7.45;4.00;;;21.80;72.80;;;;;;5030104;28;20586;-72
2023/05/13 11:34:17;;;;;;;9.00;3.72;;;21.80;70.10;;;;;;5027037;28;20049;-72
2023/05/13 11:36:50;;;;;;;10.85;4.20;;;21.80;70.40;;;;;;5026370;28;20064;-72
2023/05/13 11:39:21;;;;;;;5.97;3.47;;;21.90;69.50;;;;;;5022065;28;20072;-73
2023/05/13 11:41:49;;;;;;;9.13;4.18;;;22.10;69.10;;;;;;5023031;28;20483;-70
2023/05/13 11:44:21;;;;;;;5.97;3.65;;;22.20;68.50;;;;;;5026103;28;20047;-70
2023/05/13 11:47:02;;;;;;;7.28;3.97;;;22.30;67.90;;;;;;5015535;28;20057;-72
2023/05/13 11:49:47;;;;;;;8.98;3.92;;;22.40;68.90;;;;;;5014934;28;20045;-69
2023/05/13 11:52:18;;;;;;;5.63;3.47;;;22.60;67.10;;;;;;5015870;28;20048;-70
2023/05/13 11:54:43;;;;;;;5.25;3.45;;;22.60;65.80;;;;;;5026726;28;20120;-70
2023/05/13 11:57:19;;;;;;;6.18;3.35;;;22.70;65.40;;;;;;5023927;28;20098;-69
2023/05/13 11:59:57;;;;;;;7.13;3.90;;;22.70;62.10;;;;;;5019796;28;20061;-70
2023/05/13 12:02:28;;;;;;;6.25;3.47;;;22.70;60.60;;;;;;5015467;28;20085;-70
2023/05/13 12:04:54;;;;;;;5.18;3.38;;;22.70;60.90;;;;;;5014627;28;20081;-71
2023/05/13 12:07:25;;;;;;;5.17;3.63;;;22.70;60.90;;;;;;5015619;28;20060;-70
2023/05/13 12:09:52;;;;;;;7.40;3.75;;;22.80;61.70;;;;;;5017634;28;20045;-70
2023/05/13 12:12:19;;;;;;;5.90;3.83;;;22.90;60.60;;;;;;5030857;28;20083;-70
2023/05/13 12:14:46;;;;;;;7.78;3.22;;;22.90;60.40;;;;;;5024007;28;20525;-70
2023/05/13 12:17:15;;;;;;;;;;;22.90;62.90;;;;;;5016994;28;20518;-70
2023/05/13 12:20:10;;;;;;;7.53;3.40;;;23.00;63.90;;;;;;5016453;28;19925;-70
2023/05/13 12:22:42;;;;;;;6.22;3.45;;;23.10;59.60;;;;;;5022115;28;20040;-70
2023/05/13 12:25:39;;;;;;;8.73;3.28;;;23.00;58.70;;;;;;5029889;28;20654;-72
2023/05/13 12:28:12;;;;;;;7.43;3.60;;;22.90;57.60;;;;;;5019473;28;20052;-72
2023/05/13 12:30:59;;;;;;;5.25;3.50;;;22.90;57.90;;;;;;5029496;28;20123;-72
2023/05/13 12:33:42;;;;;;;5.75;3.95;;;22.90;57.10;;;;;;5016388;28;20075;-72
2023/05/13 12:36:18;;;;;;;6.82;3.58;;;22.90;56.90;;;;;;5022455;28;20064;-71